sensor_id;sensor_type;location;lat;lon;timestamp;P1;durP1;ratioP1;P2;durP2;ratioP2
19889;SDS011;10107;51.198;6.824;2023-12-20T00:03:36;4.93;;;2.70;;
19889;SDS011;10107;51.198;6.824;2023-12-20T00:07:37;8.20;;;3.75;;
19889;SDS011;10107;51.198;6.824;2023-12-20T00:11:39;5.28;;;3.30;;
19889;SDS011;10107;51.198;6.824;2023-12-20T00:15:43;8.27;;;4.00;;
19889;SDS011;10107;51.198;6.824;2023-12-20T00:19:45;7.90;;;3.70;;
19889;SDS011;10107;51.198;6.824;2023-12-20T00:23:46;7.93;;;4.32;;
19889;SDS011;10107;51.198;6.824;2023-12-20T00:27:48;7.07;;;3.95;;
19889;SDS011;10107;51.198;6.824;2023-12-20T00:31:51;7.15;;;4.55;;
19889;SDS011;10107;51.198;6.824;2023-12-20T00:35:53;9.10;;;4.40;;
19889;SDS011;10107;51.198;6.824;2023-12-20T00:39:54;8.82;;;4.18;;
19889;SDS011;10107;51.198;6.824;2023-12-20T00:43:56;7.25;;;4.30;;
19889;SDS011;10107;51.198;6.824;2023-12-20T00:47:59;7.10;;;4.20;;
19889;SDS011;10107;51.198;6.824;2023-12-20T00:52:00;6.15;;;3.35;;
19889;SDS011;10107;51.198;6.824;2023-12-20T00:56:02;7.95;;;5.03;;
19889;SDS011;10107;51.198;6.824;2023-12-20T01:00:05;8.60;;;5.07;;
19889;SDS011;10107;51.198;6.824;2023-12-20T01:04:11;11.20;;;5.70;;
19889;SDS011;10107;51.198;6.824;2023-12-20T01:08:12;12.93;;;6.55;;
19889;SDS011;10107;51.198;6.824;2023-12-20T01:12:14;14.25;;;7.00;;
19889;SDS011;10107;51.198;6.824;2023-12-20T01:16:16;12.52;;;7.10;;
19889;SDS011;10107;51.198;6.824;2023-12-20T01:20:18;12.38;;;7.53;;
19889;SDS011;10107;51.198;6.824;2023-12-20T01:24:21;13.70;;;8.10;;
19889;SDS011;10107;51.198;6.824;2023-12-20T01:28:22;20.50;;;9.73;;
19889;SDS011;10107;51.198;6.824;2023-12-20T01:32:24;18.77;;;9.45;;
19889;SDS011;10107;51.198;6.824;2023-12-20T01:36:27;19.48;;;10.43;;
19889;SDS011;10107;51.198;6.824;2023-12-20T01:40:29;21.08;;;11.20;;
19889;SDS011;10107;51.198;6.824;2023-12-20T01:44:30;18.83;;;10.75;;
19889;SDS011;10107;51.198;6.824;2023-12-20T01:48:32;22.50;;;12.35;;
19889;SDS011;10107;51.198;6.824;2023-12-20T01:52:35;25.25;;;12.63;;
19889;SDS011;10107;51.198;6.824;2023-12-20T02:00:40;21.17;;;11.02;;
19889;SDS011;10107;51.198;6.824;2023-12-20T02:04:42;23.55;;;11.98;;
19889;SDS011;10107;51.198;6.824;2023-12-20T02:08:45;22.10;;;11.30;;
19889;SDS011;10107;51.198;6.824;2023-12-20T02:12:47;12.27;;;6.60;;
19889;SDS011;10107;51.198;6.824;2023-12-20T02:16:48;17.13;;;9.40;;
19889;SDS011;10107;51.198;6.824;2023-12-20T02:20:50;15.52;;;8.60;;
19889;SDS011;10107;51.198;6.824;2023-12-20T02:24:53;16.38;;;8.38;;
19889;SDS011;10107;51.198;6.824;2023-12-20T02:28:54;12.38;;;5.97;;
19889;SDS011;10107;51.198;6.824;2023-12-20T02:32:56;17.70;;;8.48;;
19889;SDS011;10107;51.198;6.824;2023-12-20T02:41:02;13.98;;;7.07;;
19889;SDS011;10107;51.198;6.824;2023-12-20T02:45:05;13.93;;;6.90;;
19889;SDS011;10107;51.198;6.824;2023-12-20T02:49:07;12.33;;;4.33;;
19889;SDS011;10107;51.198;6.824;2023-12-20T02:53:09;13.95;;;6.35;;
19889;SDS011;10107;51.198;6.824;2023-12-20T02:57:11;9.95;;;4.90;;
19889;SDS011;10107;51.198;6.824;2023-12-20T03:01:13;10.13;;;4.75;;
19889;SDS011;10107;51.198;6.824;2023-12-20T03:05:15;9.80;;;3.85;;
19889;SDS011;10107;51.198;6.824;2023-12-20T03:09:17;9.52;;;3.83;;
19889;SDS011;10107;51.198;6.824;2023-12-20T03:13:20;13.25;;;4.38;;
19889;SDS011;10107;51.198;6.824;2023-12-20T03:17:21;12.05;;;2.75;;
19889;SDS011;10107;51.198;6.824;2023-12-20T03:21:23;13.35;;;4.35;;
19889;SDS011;10107;51.198;6.824;2023-12-20T03:25:24;12.63;;;4.13;;
19889;SDS011;10107;51.198;6.824;2023-12-20T03:29:27;11.00;;;4.20;;
19889;SDS011;10107;51.198;6.824;2023-12-20T03:33:29;9.88;;;3.90;;
19889;SDS011;10107;51.198;6.824;2023-12-20T03:37:31;9.52;;;3.80;;
19889;SDS011;10107;51.198;6.824;2023-12-20T03:41:32;9.18;;;4.22;;
19889;SDS011;10107;51.198;6.824;2023-12-20T03:45:35;11.45;;;3.80;;
19889;SDS011;10107;51.198;6.824;2023-12-20T03:49:37;10.15;;;4.00;;
19889;SDS011;10107;51.198;6.824;2023-12-20T03:53:38;12.52;;;3.78;;
19889;SDS011;10107;51.198;6.824;2023-12-20T03:57:40;15.95;;;4.07;;
19889;SDS011;10107;51.198;6.824;2023-12-20T04:01:44;8.52;;;3.60;;
19889;SDS011;10107;51.198;6.824;2023-12-20T04:05:46;9.63;;;3.53;;
19889;SDS011;10107;51.198;6.824;2023-12-20T04:09:47;9.57;;;3.67;;
19889;SDS011;10107;51.198;6.824;2023-12-20T04:13:49;10.25;;;3.60;;
19889;SDS011;10107;51.198;6.824;2023-12-20T04:17:52;11.70;;;4.70;;
19889;SDS011;10107;51.198;6.824;2023-12-20T04:21:53;11.07;;;4.43;;
19889;SDS011;10107;51.198;6.824;2023-12-20T04:25:55;10.45;;;4.72;;
19889;SDS011;10107;51.198;6.824;2023-12-20T04:29:56;12.00;;;5.00;;
19889;SDS011;10107;51.198;6.824;2023-12-20T04:33:59;13.63;;;5.38;;
19889;SDS011;10107;51.198;6.824;2023-12-20T04:38:01;8.60;;;3.85;;
19889;SDS011;10107;51.198;6.824;2023-12-20T04:42:03;10.27;;;4.80;;
19889;SDS011;10107;51.198;6.824;2023-12-20T04:46:05;11.27;;;4.90;;
19889;SDS011;10107;51.198;6.824;2023-12-20T04:50:08;14.77;;;6.00;;
19889;SDS011;10107;51.198;6.824;2023-12-20T04:54:11;13.07;;;5.47;;
19889;SDS011;10107;51.198;6.824;2023-12-20T04:58:13;13.32;;;5.30;;
19889;SDS011;10107;51.198;6.824;2023-12-20T05:02:15;12.43;;;5.32;;
19889;SDS011;10107;51.198;6.824;2023-12-20T05:06:18;14.50;;;5.93;;
19889;SDS011;10107;51.198;6.824;2023-12-20T05:10:20;11.90;;;5.22;;
19889;SDS011;10107;51.198;6.824;2023-12-20T05:14:21;14.05;;;5.20;;
19889;SDS011;10107;51.198;6.824;2023-12-20T05:18:23;16.50;;;5.68;;
19889;SDS011;10107;51.198;6.824;2023-12-20T05:22:26;15.10;;;5.28;;
19889;SDS011;10107;51.198;6.824;2023-12-20T05:30:30;18.25;;;5.00;;
19889;SDS011;10107;51.198;6.824;2023-12-20T05:34:32;17.25;;;5.80;;
19889;SDS011;10107;51.198;6.824;2023-12-20T05:38:35;13.02;;;5.38;;
19889;SDS011;10107;51.198;6.824;2023-12-20T05:42:36;10.30;;;4.20;;
19889;SDS011;10107;51.198;6.824;2023-12-20T05:46:38;14.55;;;5.90;;
19889;SDS011;10107;51.198;6.824;2023-12-20T05:50:40;13.45;;;5.18;;
19889;SDS011;10107;51.198;6.824;2023-12-20T05:54:43;17.05;;;5.05;;
19889;SDS011;10107;51.198;6.824;2023-12-20T05:58:44;16.80;;;6.20;;
19889;SDS011;10107;51.198;6.824;2023-12-20T06:02:46;15.70;;;5.20;;
19889;SDS011;10107;51.198;6.824;2023-12-20T06:06:48;14.10;;;5.30;;
19889;SDS011;10107;51.198;6.824;2023-12-20T06:10:51;12.95;;;5.00;;
19889;SDS011;10107;51.198;6.824;2023-12-20T06:14:52;16.00;;;5.43;;
19889;SDS011;10107;51.198;6.824;2023-12-20T06:18:54;13.43;;;4.95;;
19889;SDS011;10107;51.198;6.824;2023-12-20T06:22:56;16.20;;;5.82;;
19889;SDS011;10107;51.198;6.824;2023-12-20T06:26:59;20.05;;;6.38;;
19889;SDS011;10107;51.198;6.824;2023-12-20T06:31:01;16.52;;;4.75;;
19889;SDS011;10107;51.198;6.824;2023-12-20T06:35:03;14.07;;;5.38;;
19889;SDS011;10107;51.198;6.824;2023-12-20T06:39:06;7.55;;;4.00;;
19889;SDS011;10107;51.198;6.824;2023-12-20T06:43:10;17.95;;;6.40;;
19889;SDS011;10107;51.198;6.824;2023-12-20T06:47:13;18.52;;;5.20;;
19889;SDS011;10107;51.198;6.824;2023-12-20T06:51:15;18.75;;;5.65;;
19889;SDS011;10107;51.198;6.824;2023-12-20T06:55:17;15.50;;;5.43;;
19889;SDS011;10107;51.198;6.824;2023-12-20T06:59:20;13.07;;;5.53;;
19889;SDS011;10107;51.198;6.824;2023-12-20T07:03:22;11.50;;;4.05;;
19889;SDS011;10107;51.198;6.824;2023-12-20T07:07:24;17.08;;;5.53;;
19889;SDS011;10107;51.198;6.824;2023-12-20T07:11:26;17.95;;;5.28;;
19889;SDS011;10107;51.198;6.824;2023-12-20T07:15:29;16.83;;;5.68;;
19889;SDS011;10107;51.198;6.824;2023-12-20T07:19:31;14.98;;;5.40;;
19889;SDS011;10107;51.198;6.824;2023-12-20T07:23:32;15.10;;;4.95;;
19889;SDS011;10107;51.198;6.824;2023-12-20T07:27:34;15.32;;;5.40;;
19889;SDS011;10107;51.198;6.824;2023-12-20T07:31:37;15.65;;;5.20;;
19889;SDS011;10107;51.198;6.824;2023-12-20T07:35:39;18.90;;;6.10;;
19889;SDS011;10107;51.198;6.824;2023-12-20T07:39:40;16.00;;;5.97;;
19889;SDS011;10107;51.198;6.824;2023-12-20T07:43:43;12.40;;;5.20;;
19889;SDS011;10107;51.198;6.824;2023-12-20T07:47:46;15.20;;;5.60;;
19889;SDS011;10107;51.198;6.824;2023-12-20T07:51:49;20.02;;;6.63;;
19889;SDS011;10107;51.198;6.824;2023-12-20T07:55:51;15.88;;;5.38;;
19889;SDS011;10107;51.198;6.824;2023-12-20T07:59:53;17.13;;;5.68;;
19889;SDS011;10107;51.198;6.824;2023-12-20T08:03:56;12.52;;;5.03;;
19889;SDS011;10107;51.198;6.824;2023-12-20T08:07:58;13.90;;;5.13;;
19889;SDS011;10107;51.198;6.824;2023-12-20T08:11:59;15.45;;;5.50;;
19889;SDS011;10107;51.198;6.824;2023-12-20T08:16:01;14.68;;;5.53;;
19889;SDS011;10107;51.198;6.824;2023-12-20T08:20:06;15.80;;;6.38;;
19889;SDS011;10107;51.198;6.824;2023-12-20T08:24:08;16.30;;;6.32;;
19889;SDS011;10107;51.198;6.824;2023-12-20T08:28:10;14.45;;;6.00;;
19889;SDS011;10107;51.198;6.824;2023-12-20T08:32:11;14.55;;;5.72;;
19889;SDS011;10107;51.198;6.824;2023-12-20T08:36:15;13.05;;;5.43;;
19889;SDS011;10107;51.198;6.824;2023-12-20T08:40:18;13.85;;;5.13;;
19889;SDS011;10107;51.198;6.824;2023-12-20T08:44:20;15.23;;;5.93;;
19889;SDS011;10107;51.198;6.824;2023-12-20T08:48:22;14.20;;;5.53;;
19889;SDS011;10107;51.198;6.824;2023-12-20T08:52:25;15.63;;;5.30;;
19889;SDS011;10107;51.198;6.824;2023-12-20T08:56:27;16.40;;;6.10;;
19889;SDS011;10107;51.198;6.824;2023-12-20T09:00:29;16.45;;;4.93;;
19889;SDS011;10107;51.198;6.824;2023-12-20T09:04:30;13.57;;;5.57;;
19889;SDS011;10107;51.198;6.824;2023-12-20T09:08:33;15.02;;;5.32;;
19889;SDS011;10107;51.198;6.824;2023-12-20T09:12:35;15.38;;;5.50;;
19889;SDS011;10107;51.198;6.824;2023-12-20T09:16:39;13.98;;;4.50;;
19889;SDS011;10107;51.198;6.824;2023-12-20T09:20:41;13.30;;;4.82;;
19889;SDS011;10107;51.198;6.824;2023-12-20T09:24:44;14.10;;;5.13;;
19889;SDS011;10107;51.198;6.824;2023-12-20T09:28:46;14.23;;;4.63;;
19889;SDS011;10107;51.198;6.824;2023-12-20T09:32:48;12.63;;;4.38;;
19889;SDS011;10107;51.198;6.824;2023-12-20T09:36:49;20.98;;;5.80;;
19889;SDS011;10107;51.198;6.824;2023-12-20T09:40:52;9.98;;;4.13;;
19889;SDS011;10107;51.198;6.824;2023-12-20T09:44:55;13.23;;;4.07;;
19889;SDS011;10107;51.198;6.824;2023-12-20T09:49:00;14.70;;;3.90;;
19889;SDS011;10107;51.198;6.824;2023-12-20T09:53:02;11.73;;;4.28;;
19889;SDS011;10107;51.198;6.824;2023-12-20T09:57:10;15.38;;;4.20;;
19889;SDS011;10107;51.198;6.824;2023-12-20T10:01:12;14.23;;;4.35;;
19889;SDS011;10107;51.198;6.824;2023-12-20T10:05:15;11.73;;;3.60;;
19889;SDS011;10107;51.198;6.824;2023-12-20T10:09:19;13.63;;;3.40;;
19889;SDS011;10107;51.198;6.824;2023-12-20T10:13:22;15.15;;;4.25;;
19889;SDS011;10107;51.198;6.824;2023-12-20T10:17:23;6.22;;;2.80;;
19889;SDS011;10107;51.198;6.824;2023-12-20T10:21:29;14.45;;;4.32;;
19889;SDS011;10107;51.198;6.824;2023-12-20T10:25:31;15.07;;;3.63;;
19889;SDS011;10107;51.198;6.824;2023-12-20T10:29:34;14.18;;;3.63;;
19889;SDS011;10107;51.198;6.824;2023-12-20T10:37:38;12.85;;;3.53;;
19889;SDS011;10107;51.198;6.824;2023-12-20T10:41:40;13.55;;;3.90;;
19889;SDS011;10107;51.198;6.824;2023-12-20T10:45:44;12.77;;;4.20;;
19889;SDS011;10107;51.198;6.824;2023-12-20T10:49:47;14.00;;;3.72;;
19889;SDS011;10107;51.198;6.824;2023-12-20T10:53:49;11.93;;;3.60;;
19889;SDS011;10107;51.198;6.824;2023-12-20T10:57:52;16.33;;;3.97;;
19889;SDS011;10107;51.198;6.824;2023-12-20T11:01:57;8.80;;;4.00;;
19889;SDS011;10107;51.198;6.824;2023-12-20T11:06:01;13.57;;;3.80;;
19889;SDS011;10107;51.198;6.824;2023-12-20T11:10:10;11.13;;;3.65;;
19889;SDS011;10107;51.198;6.824;2023-12-20T11:14:19;12.48;;;4.25;;
19889;SDS011;10107;51.198;6.824;2023-12-20T11:18:29;11.80;;;4.25;;
19889;SDS011;10107;51.198;6.824;2023-12-20T11:22:32;12.43;;;3.72;;
19889;SDS011;10107;51.198;6.824;2023-12-20T11:30:43;15.02;;;4.07;;
19889;SDS011;10107;51.198;6.824;2023-12-20T11:34:50;8.88;;;4.13;;
19889;SDS011;10107;51.198;6.824;2023-12-20T11:38:55;12.57;;;3.58;;
19889;SDS011;10107;51.198;6.824;2023-12-20T11:42:58;11.65;;;3.58;;
19889;SDS011;10107;51.198;6.824;2023-12-20T11:47:00;12.40;;;3.92;;
19889;SDS011;10107;51.198;6.824;2023-12-20T11:51:08;12.57;;;4.47;;
19889;SDS011;10107;51.198;6.824;2023-12-20T11:55:10;13.63;;;4.05;;
19889;SDS011;10107;51.198;6.824;2023-12-20T11:59:12;15.40;;;4.20;;
19889;SDS011;10107;51.198;6.824;2023-12-20T12:03:15;7.93;;;3.50;;
19889;SDS011;10107;51.198;6.824;2023-12-20T12:07:18;12.93;;;4.18;;
19889;SDS011;10107;51.198;6.824;2023-12-20T12:11:20;16.77;;;3.63;;
19889;SDS011;10107;51.198;6.824;2023-12-20T12:15:22;13.27;;;4.20;;
19889;SDS011;10107;51.198;6.824;2023-12-20T12:19:24;13.63;;;4.28;;
19889;SDS011;10107;51.198;6.824;2023-12-20T12:23:30;10.60;;;4.22;;
19889;SDS011;10107;51.198;6.824;2023-12-20T12:27:32;13.57;;;4.88;;
19889;SDS011;10107;51.198;6.824;2023-12-20T12:31:34;9.98;;;3.80;;
19889;SDS011;10107;51.198;6.824;2023-12-20T12:35:35;9.68;;;3.85;;
19889;SDS011;10107;51.198;6.824;2023-12-20T12:39:39;13.18;;;4.20;;
19889;SDS011;10107;51.198;6.824;2023-12-20T12:43:41;15.85;;;5.05;;
19889;SDS011;10107;51.198;6.824;2023-12-20T12:47:43;16.83;;;4.85;;
19889;SDS011;10107;51.198;6.824;2023-12-20T12:51:45;12.77;;;4.95;;
19889;SDS011;10107;51.198;6.824;2023-12-20T12:55:48;12.77;;;4.70;;
19889;SDS011;10107;51.198;6.824;2023-12-20T12:59:49;10.18;;;4.38;;
19889;SDS011;10107;51.198;6.824;2023-12-20T13:03:51;13.93;;;4.72;;
19889;SDS011;10107;51.198;6.824;2023-12-20T13:07:53;10.55;;;4.78;;
19889;SDS011;10107;51.198;6.824;2023-12-20T13:11:56;10.60;;;4.90;;
19889;SDS011;10107;51.198;6.824;2023-12-20T13:15:59;10.50;;;5.00;;
19889;SDS011;10107;51.198;6.824;2023-12-20T13:20:01;14.82;;;4.97;;
19889;SDS011;10107;51.198;6.824;2023-12-20T13:24:03;12.25;;;5.03;;
19889;SDS011;10107;51.198;6.824;2023-12-20T13:28:07;12.48;;;5.80;;
19889;SDS011;10107;51.198;6.824;2023-12-20T13:32:09;16.70;;;5.93;;
19889;SDS011;10107;51.198;6.824;2023-12-20T13:36:11;14.90;;;6.85;;
19889;SDS011;10107;51.198;6.824;2023-12-20T13:40:13;23.55;;;8.93;;
19889;SDS011;10107;51.198;6.824;2023-12-20T13:44:16;14.18;;;6.85;;
19889;SDS011;10107;51.198;6.824;2023-12-20T13:48:17;17.55;;;6.35;;
19889;SDS011;10107;51.198;6.824;2023-12-20T13:52:19;12.07;;;6.00;;
19889;SDS011;10107;51.198;6.824;2023-12-20T13:56:20;11.40;;;6.65;;
19889;SDS011;10107;51.198;6.824;2023-12-20T14:00:24;12.43;;;6.43;;
19889;SDS011;10107;51.198;6.824;2023-12-20T14:04:26;12.20;;;6.13;;
19889;SDS011;10107;51.198;6.824;2023-12-20T14:08:28;13.73;;;6.40;;
19889;SDS011;10107;51.198;6.824;2023-12-20T14:12:29;13.02;;;5.78;;
19889;SDS011;10107;51.198;6.824;2023-12-20T14:16:34;12.68;;;6.40;;
19889;SDS011;10107;51.198;6.824;2023-12-20T14:20:36;9.15;;;4.85;;
19889;SDS011;10107;51.198;6.824;2023-12-20T14:28:41;12.85;;;5.47;;
19889;SDS011;10107;51.198;6.824;2023-12-20T14:32:44;11.25;;;5.10;;
19889;SDS011;10107;51.198;6.824;2023-12-20T14:40:48;13.05;;;5.20;;
19889;SDS011;10107;51.198;6.824;2023-12-20T14:44:49;13.52;;;5.90;;
19889;SDS011;10107;51.198;6.824;2023-12-20T14:48:53;9.63;;;5.15;;
19889;SDS011;10107;51.198;6.824;2023-12-20T14:52:55;11.90;;;6.00;;
19889;SDS011;10107;51.198;6.824;2023-12-20T14:56:57;11.25;;;6.47;;
19889;SDS011;10107;51.198;6.824;2023-12-20T15:00:59;14.25;;;6.43;;
19889;SDS011;10107;51.198;6.824;2023-12-20T15:05:02;14.07;;;6.18;;
19889;SDS011;10107;51.198;6.824;2023-12-20T15:09:04;11.95;;;5.68;;
19889;SDS011;10107;51.198;6.824;2023-12-20T15:13:06;16.42;;;6.57;;
19889;SDS011;10107;51.198;6.824;2023-12-20T15:17:07;14.43;;;5.40;;
19889;SDS011;10107;51.198;6.824;2023-12-20T15:21:10;11.95;;;4.95;;
19889;SDS011;10107;51.198;6.824;2023-12-20T15:25:12;10.93;;;4.82;;
19889;SDS011;10107;51.198;6.824;2023-12-20T15:29:20;11.55;;;5.05;;
19889;SDS011;10107;51.198;6.824;2023-12-20T15:33:21;10.98;;;4.72;;
19889;SDS011;10107;51.198;6.824;2023-12-20T15:37:24;11.73;;;4.88;;
19889;SDS011;10107;51.198;6.824;2023-12-20T15:41:26;14.73;;;5.63;;
19889;SDS011;10107;51.198;6.824;2023-12-20T15:45:28;13.27;;;6.68;;
19889;SDS011;10107;51.198;6.824;2023-12-20T15:49:29;12.05;;;6.18;;
19889;SDS011;10107;51.198;6.824;2023-12-20T15:53:32;11.40;;;5.20;;
19889;SDS011;10107;51.198;6.824;2023-12-20T15:57:34;9.45;;;3.90;;
19889;SDS011;10107;51.198;6.824;2023-12-20T16:01:36;15.57;;;5.75;;
19889;SDS011;10107;51.198;6.824;2023-12-20T16:05:38;16.55;;;5.82;;
19889;SDS011;10107;51.198;6.824;2023-12-20T16:09:41;14.88;;;5.63;;
19889;SDS011;10107;51.198;6.824;2023-12-20T16:13:43;14.93;;;6.63;;
19889;SDS011;10107;51.198;6.824;2023-12-20T16:17:44;12.27;;;5.85;;
19889;SDS011;10107;51.198;6.824;2023-12-20T16:21:46;18.35;;;6.35;;
19889;SDS011;10107;51.198;6.824;2023-12-20T16:25:49;14.45;;;6.15;;
19889;SDS011;10107;51.198;6.824;2023-12-20T16:29:50;15.00;;;6.55;;
19889;SDS011;10107;51.198;6.824;2023-12-20T16:33:52;12.35;;;6.32;;
19889;SDS011;10107;51.198;6.824;2023-12-20T16:37:54;10.80;;;5.57;;
19889;SDS011;10107;51.198;6.824;2023-12-20T16:41:58;13.73;;;5.97;;
19889;SDS011;10107;51.198;6.824;2023-12-20T16:46:00;13.57;;;5.88;;
19889;SDS011;10107;51.198;6.824;2023-12-20T16:50:01;13.55;;;5.25;;
19889;SDS011;10107;51.198;6.824;2023-12-20T16:54:05;13.95;;;6.47;;
19889;SDS011;10107;51.198;6.824;2023-12-20T16:58:08;14.32;;;6.97;;
19889;SDS011;10107;51.198;6.824;2023-12-20T17:02:10;15.65;;;6.60;;
19889;SDS011;10107;51.198;6.824;2023-12-20T17:06:12;13.55;;;6.57;;
19889;SDS011;10107;51.198;6.824;2023-12-20T17:10:13;13.35;;;6.90;;
19889;SDS011;10107;51.198;6.824;2023-12-20T17:14:16;13.63;;;6.40;;
19889;SDS011;10107;51.198;6.824;2023-12-20T17:18:18;11.93;;;6.28;;
19889;SDS011;10107;51.198;6.824;2023-12-20T17:22:20;13.35;;;6.75;;
19889;SDS011;10107;51.198;6.824;2023-12-20T17:26:22;14.50;;;6.20;;
19889;SDS011;10107;51.198;6.824;2023-12-20T17:30:25;15.00;;;6.72;;
19889;SDS011;10107;51.198;6.824;2023-12-20T17:34:26;12.57;;;6.32;;
19889;SDS011;10107;51.198;6.824;2023-12-20T17:38:28;15.50;;;6.55;;
19889;SDS011;10107;51.198;6.824;2023-12-20T17:42:30;12.02;;;6.32;;
19889;SDS011;10107;51.198;6.824;2023-12-20T17:46:33;22.77;;;6.35;;
19889;SDS011;10107;51.198;6.824;2023-12-20T17:50:34;14.60;;;6.00;;
19889;SDS011;10107;51.198;6.824;2023-12-20T17:54:36;13.10;;;5.90;;
19889;SDS011;10107;51.198;6.824;2023-12-20T17:58:38;12.63;;;6.18;;
19889;SDS011;10107;51.198;6.824;2023-12-20T18:02:41;14.68;;;6.32;;
19889;SDS011;10107;51.198;6.824;2023-12-20T18:06:42;12.57;;;6.03;;
19889;SDS011;10107;51.198;6.824;2023-12-20T18:10:44;15.55;;;5.80;;
19889;SDS011;10107;51.198;6.824;2023-12-20T18:14:46;15.48;;;5.68;;
19889;SDS011;10107;51.198;6.824;2023-12-20T18:18:50;9.83;;;4.00;;
19889;SDS011;10107;51.198;6.824;2023-12-20T18:22:51;15.00;;;5.75;;
19889;SDS011;10107;51.198;6.824;2023-12-20T18:26:53;13.52;;;5.63;;
19889;SDS011;10107;51.198;6.824;2023-12-20T18:30:54;13.85;;;5.47;;
19889;SDS011;10107;51.198;6.824;2023-12-20T18:34:57;13.52;;;5.82;;
19889;SDS011;10107;51.198;6.824;2023-12-20T18:38:59;12.63;;;5.03;;
19889;SDS011;10107;51.198;6.824;2023-12-20T18:43:01;9.30;;;5.05;;
19889;SDS011;10107;51.198;6.824;2023-12-20T18:47:04;11.68;;;5.07;;
19889;SDS011;10107;51.198;6.824;2023-12-20T18:51:06;11.02;;;4.90;;
19889;SDS011;10107;51.198;6.824;2023-12-20T18:55:08;10.80;;;5.70;;
19889;SDS011;10107;51.198;6.824;2023-12-20T18:59:10;16.92;;;5.70;;
19889;SDS011;10107;51.198;6.824;2023-12-20T19:03:13;10.85;;;3.70;;
19889;SDS011;10107;51.198;6.824;2023-12-20T19:07:16;10.98;;;4.53;;
19889;SDS011;10107;51.198;6.824;2023-12-20T19:11:18;14.60;;;5.93;;
19889;SDS011;10107;51.198;6.824;2023-12-20T19:15:19;12.07;;;5.20;;
19889;SDS011;10107;51.198;6.824;2023-12-20T19:19:21;13.07;;;5.13;;
19889;SDS011;10107;51.198;6.824;2023-12-20T19:23:24;11.45;;;5.63;;
19889;SDS011;10107;51.198;6.824;2023-12-20T19:27:27;15.20;;;5.22;;
19889;SDS011;10107;51.198;6.824;2023-12-20T19:31:29;13.10;;;5.57;;
19889;SDS011;10107;51.198;6.824;2023-12-20T19:35:30;15.10;;;6.05;;
19889;SDS011;10107;51.198;6.824;2023-12-20T19:39:33;13.30;;;5.55;;
19889;SDS011;10107;51.198;6.824;2023-12-20T19:43:37;10.77;;;5.28;;
19889;SDS011;10107;51.198;6.824;2023-12-20T19:47:41;10.02;;;5.53;;
19889;SDS011;10107;51.198;6.824;2023-12-20T19:51:48;14.50;;;6.03;;
19889;SDS011;10107;51.198;6.824;2023-12-20T19:55:51;12.10;;;5.60;;
19889;SDS011;10107;51.198;6.824;2023-12-20T19:59:53;11.40;;;5.30;;
19889;SDS011;10107;51.198;6.824;2023-12-20T20:03:55;16.77;;;5.90;;
19889;SDS011;10107;51.198;6.824;2023-12-20T20:07:57;11.10;;;5.60;;
19889;SDS011;10107;51.198;6.824;2023-12-20T20:12:00;13.52;;;5.82;;
19889;SDS011;10107;51.198;6.824;2023-12-20T20:16:02;13.18;;;6.05;;
19889;SDS011;10107;51.198;6.824;2023-12-20T20:20:05;13.70;;;6.27;;
19889;SDS011;10107;51.198;6.824;2023-12-20T20:24:07;10.82;;;5.45;;
19889;SDS011;10107;51.198;6.824;2023-12-20T20:28:11;18.85;;;5.97;;
19889;SDS011;10107;51.198;6.824;2023-12-20T20:32:12;16.23;;;5.90;;
19889;SDS011;10107;51.198;6.824;2023-12-20T20:36:14;13.20;;;5.80;;
19889;SDS011;10107;51.198;6.824;2023-12-20T20:40:16;15.18;;;5.68;;
19889;SDS011;10107;51.198;6.824;2023-12-20T20:44:19;15.45;;;5.93;;
19889;SDS011;10107;51.198;6.824;2023-12-20T20:48:21;11.52;;;5.95;;
19889;SDS011;10107;51.198;6.824;2023-12-20T20:52:22;12.45;;;6.03;;
19889;SDS011;10107;51.198;6.824;2023-12-20T20:56:24;14.38;;;6.18;;
19889;SDS011;10107;51.198;6.824;2023-12-20T21:00:27;20.23;;;10.45;;
19889;SDS011;10107;51.198;6.824;2023-12-20T21:04:30;20.08;;;10.02;;
19889;SDS011;10107;51.198;6.824;2023-12-20T21:08:32;15.27;;;7.40;;
19889;SDS011;10107;51.198;6.824;2023-12-20T21:12:33;14.63;;;6.10;;
19889;SDS011;10107;51.198;6.824;2023-12-20T21:16:36;18.05;;;6.25;;
19889;SDS011;10107;51.198;6.824;2023-12-20T21:20:38;12.18;;;5.90;;
19889;SDS011;10107;51.198;6.824;2023-12-20T21:24:40;12.60;;;5.97;;
19889;SDS011;10107;51.198;6.824;2023-12-20T21:28:41;11.63;;;5.65;;
19889;SDS011;10107;51.198;6.824;2023-12-20T21:32:44;10.68;;;6.20;;
19889;SDS011;10107;51.198;6.824;2023-12-20T21:36:47;13.30;;;5.90;;
19889;SDS011;10107;51.198;6.824;2023-12-20T21:40:49;11.98;;;5.97;;
19889;SDS011;10107;51.198;6.824;2023-12-20T21:44:52;11.73;;;6.65;;
19889;SDS011;10107;51.198;6.824;2023-12-20T21:48:55;11.88;;;6.20;;
19889;SDS011;10107;51.198;6.824;2023-12-20T21:52:56;15.15;;;5.88;;
19889;SDS011;10107;51.198;6.824;2023-12-20T21:56:59;9.48;;;5.55;;
19889;SDS011;10107;51.198;6.824;2023-12-20T22:01:01;10.27;;;5.40;;
19889;SDS011;10107;51.198;6.824;2023-12-20T22:05:04;12.90;;;5.63;;
19889;SDS011;10107;51.198;6.824;2023-12-20T22:09:06;10.05;;;5.07;;
19889;SDS011;10107;51.198;6.824;2023-12-20T22:13:08;10.85;;;5.10;;
19889;SDS011;10107;51.198;6.824;2023-12-20T22:17:10;10.85;;;5.68;;
19889;SDS011;10107;51.198;6.824;2023-12-20T22:21:14;12.65;;;5.78;;
19889;SDS011;10107;51.198;6.824;2023-12-20T22:25:16;11.27;;;5.70;;
19889;SDS011;10107;51.198;6.824;2023-12-20T22:29:18;9.07;;;5.63;;
19889;SDS011;10107;51.198;6.824;2023-12-20T22:33:20;12.15;;;5.88;;
19889;SDS011;10107;51.198;6.824;2023-12-20T22:37:23;8.90;;;5.07;;
19889;SDS011;10107;51.198;6.824;2023-12-20T22:41:24;7.07;;;4.13;;
19889;SDS011;10107;51.198;6.824;2023-12-20T22:45:26;11.13;;;5.45;;
19889;SDS011;10107;51.198;6.824;2023-12-20T22:49:28;10.10;;;5.03;;
19889;SDS011;10107;51.198;6.824;2023-12-20T22:53:31;14.25;;;5.30;;
19889;SDS011;10107;51.198;6.824;2023-12-20T22:57:33;10.57;;;4.95;;
19889;SDS011;10107;51.198;6.824;2023-12-20T23:01:34;7.80;;;4.50;;
19889;SDS011;10107;51.198;6.824;2023-12-20T23:05:36;7.90;;;4.35;;
19889;SDS011;10107;51.198;6.824;2023-12-20T23:09:39;7.35;;;4.78;;
19889;SDS011;10107;51.198;6.824;2023-12-20T23:13:41;7.30;;;5.18;;
19889;SDS011;10107;51.198;6.824;2023-12-20T23:17:43;9.38;;;4.70;;
19889;SDS011;10107;51.198;6.824;2023-12-20T23:21:45;8.27;;;4.82;;
19889;SDS011;10107;51.198;6.824;2023-12-20T23:25:47;8.80;;;5.07;;
19889;SDS011;10107;51.198;6.824;2023-12-20T23:29:51;7.07;;;4.68;;
19889;SDS011;10107;51.198;6.824;2023-12-20T23:33:53;8.73;;;5.45;;
19889;SDS011;10107;51.198;6.824;2023-12-20T23:37:55;9.90;;;5.20;;
19889;SDS011;10107;51.198;6.824;2023-12-20T23:41:58;10.15;;;5.50;;
19889;SDS011;10107;51.198;6.824;2023-12-20T23:46:00;7.07;;;3.72;;
19889;SDS011;10107;51.198;6.824;2023-12-20T23:50:02;7.85;;;5.03;;
19889;SDS011;10107;51.198;6.824;2023-12-20T23:54:04;10.15;;;5.70;;
19889;SDS011;10107;51.198;6.824;2023-12-20T23:58:07;9.10;;;5.72;;
